Time,TemperatureF,DewpointF,PressureIn,WindDirection,WindDirectionDegrees,WindSpeedMPH,WindSpeedGustMPH,Humidity,HourlyPrecipIn,Conditions,Clouds,dailyrainin,SolarRadiationWatts/m^2,SoftwareType,DateUTC
2013-07-28 00:03:00,65.2,59.6,30.04,ENE,72,3.0,9.0,82,0.07,,,0.00,0,Wunderground v.1.15,2013-07-28 05:03:00,
2013-07-28 00:09:00,65.3,60.0,30.04,NE,55,4.0,9.0,83,0.05,,,0.01,0,Wunderground v.1.15,2013-07-28 05:09:00,
2013-07-28 00:15:00,65.1,59.8,30.03,ENE,68,3.0,9.0,83,0.20,,,0.03,0,Wunderground v.1.15,2013-07-28 05:15:00,
2013-07-28 00:21:00,64.7,59.4,30.04,ENE,64,3.0,9.0,83,0.16,,,0.04,0,Wunderground v.1.15,2013-07-28 05:21:00,
2013-07-28 00:27:00,64.4,59.1,30.05,ENE,68,3.0,9.0,83,0.13,,,0.05,0,Wunderground v.1.15,2013-07-28 05:27:00,
2013-07-28 00:33:00,64.1,58.8,30.06,ENE,67,2.0,2.0,83,0.09,,,0.06,0,Wunderground v.1.15,2013-07-28 05:33:00,
2013-07-28 00:39:00,64.0,59.1,30.06,ENE,67,1.0,9.0,84,0.09,,,0.07,0,Wunderground v.1.15,2013-07-28 05:39:00,
2013-07-28 00:45:00,63.8,59.2,30.06,ENE,67,0.0,9.0,85,0.09,,,0.08,0,Wunderground v.1.15,2013-07-28 05:45:00,
2013-07-28 00:51:00,63.6,59.0,30.05,ENE,67,0.0,9.0,85,0.08,,,0.08,0,Wunderground v.1.15,2013-07-28 05:51:00,
2013-07-28 00:58:00,63.4,58.8,30.05,ENE,67,1.0,9.0,85,0.17,,,0.10,0,Wunderground v.1.15,2013-07-28 05:58:00,
2013-07-28 01:03:00,63.4,58.8,30.05,ENE,60,3.0,4.0,85,0.11,,,0.11,0,Wunderground v.1.15,2013-07-28 06:03:00,
2013-07-28 01:09:00,63.3,58.7,30.06,ENE,60,2.0,4.0,85,0.10,,,0.12,0,Wunderground v.1.15,2013-07-28 06:09:00,
2013-07-28 01:15:00,63.2,58.6,30.05,ENE,62,1.0,2.0,85,0.05,,,0.12,0,Wunderground v.1.15,2013-07-28 06:15:00,
2013-07-28 01:21:00,63.1,58.5,30.05,ESE,112,1.0,4.0,85,0.17,,,0.13,0,Wunderground v.1.15,2013-07-28 06:21:00,
2013-07-28 01:27:00,62.9,58.3,30.05,ESE,120,2.0,3.0,85,0.11,,,0.15,0,Wunderground v.1.15,2013-07-28 06:27:00,
2013-07-28 01:33:00,62.9,58.3,30.05,East,91,2.0,2.0,85,0.14,,,0.16,0,Wunderground v.1.15,2013-07-28 06:33:00,
2013-07-28 01:39:00,62.8,58.2,30.06,ENE,73,3.0,5.0,85,0.11,,,0.17,0,Wunderground v.1.15,2013-07-28 06:39:00,
2013-07-28 01:45:00,62.8,58.5,30.05,ENE,71,3.0,5.0,86,0.11,,,0.18,0,Wunderground v.1.15,2013-07-28 06:45:00,
2013-07-28 01:51:00,62.7,58.5,30.05,ENE,71,3.0,5.0,86,0.09,,,0.19,0,Wunderground v.1.15,2013-07-28 06:51:00,
2013-07-28 01:57:00,62.8,58.5,30.06,ENE,71,1.0,2.0,86,0.08,,,0.20,0,Wunderground v.1.15,2013-07-28 06:57:00,
2013-07-28 02:03:00,62.7,58.5,30.06,ENE,71,1.0,1.0,86,0.20,,,0.22,0,Wunderground v.1.15,2013-07-28 07:03:00,
2013-07-28 02:09:00,62.5,58.3,30.06,ENE,73,2.0,2.0,86,0.08,,,0.22,0,Wunderground v.1.15,2013-07-28 07:09:00,
2013-07-28 02:15:00,62.4,58.2,30.06,ENE,73,1.0,1.0,86,0.07,,,0.23,0,Wunderground v.1.15,2013-07-28 07:15:00,
2013-07-28 02:21:00,62.3,58.1,30.06,ENE,73,1.0,1.0,86,0.05,,,0.23,0,Wunderground v.1.15,2013-07-28 07:21:00,
2013-07-28 02:27:00,62.4,58.2,30.08,ENE,72,1.0,3.0,86,0.05,,,0.24,0,Wunderground v.1.15,2013-07-28 07:27:00,
2013-07-28 02:33:00,62.6,58.4,30.08,ENE,70,2.0,2.0,86,0.05,,,0.24,0,Wunderground v.1.15,2013-07-28 07:33:00,
2013-07-28 02:39:00,62.6,58.4,30.06,ENE,71,2.0,3.0,86,0.04,,,0.24,0,Wunderground v.1.15,2013-07-28 07:39:00,
2013-07-28 02:45:00,62.4,58.2,30.06,ENE,71,2.0,2.0,86,0.00,,,0.24,0,Wunderground v.1.15,2013-07-28 07:45:00,
2013-07-28 02:51:00,62.4,58.2,30.05,ENE,71,1.0,3.0,86,0.00,,,0.25,0,Wunderground v.1.15,2013-07-28 07:51:00,
2013-07-28 02:57:00,62.3,58.1,30.05,ENE,73,1.0,3.0,86,0.00,,,0.25,0,Wunderground v.1.15,2013-07-28 07:57:00,
2013-07-28 03:03:00,62.3,58.1,30.05,East,87,2.0,2.0,86,0.07,,,0.26,0,Wunderground v.1.15,2013-07-28 08:03:00,
2013-07-28 03:09:00,62.3,58.4,30.05,East,91,2.0,2.0,87,0.08,,,0.27,0,Wunderground v.1.15,2013-07-28 08:09:00,
2013-07-28 03:15:00,62.4,58.5,30.06,East,94,1.0,5.0,87,0.06,,,0.27,0,Wunderground v.1.15,2013-07-28 08:15:00,
2013-07-28 03:21:00,62.3,58.4,30.05,East,89,3.0,5.0,87,0.04,,,0.28,0,Wunderground v.1.15,2013-07-28 08:21:00,
2013-07-28 03:27:00,62.3,58.4,30.04,East,83,5.0,7.0,87,0.31,,,0.30,0,Wunderground v.1.15,2013-07-28 08:27:00,
2013-07-28 03:33:00,62.5,58.6,30.04,ENE,75,5.0,5.0,87,0.11,,,0.32,0,Wunderground v.1.15,2013-07-28 08:33:00,
2013-07-28 03:39:00,62.5,58.6,30.04,East,83,5.0,6.0,87,0.10,,,0.32,0,Wunderground v.1.15,2013-07-28 08:39:00,
2013-07-28 03:45:00,62.4,58.5,30.03,ESE,113,4.0,5.0,87,0.05,,,0.32,0,Wunderground v.1.15,2013-07-28 08:45:00,
2013-07-28 03:51:00,62.4,58.5,30.04,ESE,116,3.0,5.0,87,0.04,,,0.33,0,Wunderground v.1.15,2013-07-28 08:51:00,
2013-07-28 03:57:00,62.4,58.8,30.04,East,94,3.0,7.0,88,0.04,,,0.33,0,Wunderground v.1.15,2013-07-28 08:57:00,
2013-07-28 04:05:00,62.4,58.8,30.05,East,97,4.0,4.0,88,1.37,,,0.38,0,Wunderground v.1.15,2013-07-28 09:05:00,
2013-07-28 04:13:00,62.4,58.8,30.05,East,97,3.0,8.0,88,0.25,,,0.45,0,Wunderground v.1.15,2013-07-28 09:13:00,
2013-07-28 04:19:00,62.4,58.8,30.05,ESE,109,4.0,9.0,88,0.35,,,0.49,0,Wunderground v.1.15,2013-07-28 09:19:00,
2013-07-28 04:25:00,62.3,58.7,30.04,East,89,4.0,8.0,88,0.67,,,0.52,0,Wunderground v.1.15,2013-07-28 09:25:00,
2013-07-28 04:31:00,62.3,58.7,30.05,ENE,77,6.0,9.0,88,0.20,,,0.54,0,Wunderground v.1.15,2013-07-28 09:31:00,
2013-07-28 04:37:00,62.3,58.7,30.05,East,80,6.0,9.0,88,0.43,,,0.55,0,Wunderground v.1.15,2013-07-28 09:37:00,
2013-07-28 04:43:00,62.4,58.8,30.04,NE,52,7.0,7.0,88,0.35,,,0.59,0,Wunderground v.1.15,2013-07-28 09:43:00,
2013-07-28 04:59:00,62.2,58.6,30.04,East,85,4.0,6.0,88,0.53,,,0.73,0,Wunderground v.1.15,2013-07-28 09:59:00,
2013-07-28 05:05:00,62.2,58.6,30.05,East,86,6.0,6.0,88,0.30,,,0.76,0,Wunderground v.1.15,2013-07-28 10:05:00,
2013-07-28 05:11:00,62.2,58.6,30.04,SE,124,4.0,8.0,88,0.60,,,0.83,0,Wunderground v.1.15,2013-07-28 10:11:00,
2013-07-28 05:17:00,62.2,58.6,30.05,East,85,4.0,11.0,88,0.24,,,0.87,0,Wunderground v.1.15,2013-07-28 10:17:00,
2013-07-28 05:23:00,62.2,58.6,30.05,ESE,112,4.0,7.0,88,1.18,,,0.91,0,Wunderground v.1.15,2013-07-28 10:23:00,
2013-07-28 05:29:00,62.2,58.6,30.06,East,85,5.0,7.0,88,0.17,,,0.93,0,Wunderground v.1.15,2013-07-28 10:29:00,
2013-07-28 05:35:00,62.3,58.7,30.05,ENE,70,5.0,9.0,88,0.10,,,0.94,0,Wunderground v.1.15,2013-07-28 10:35:00,
2013-07-28 05:41:00,62.3,59.0,30.05,East,81,5.0,9.0,89,0.12,,,0.95,0,Wunderground v.1.15,2013-07-28 10:41:00,
2013-07-28 05:47:00,62.4,59.1,30.03,ESE,106,5.0,5.0,89,0.08,,,0.96,0,Wunderground v.1.15,2013-07-28 10:47:00,
2013-07-28 05:53:00,62.5,59.2,30.04,ENE,66,5.0,5.0,89,0.07,,,0.96,0,Wunderground v.1.15,2013-07-28 10:53:00,
2013-07-28 05:59:00,62.6,59.3,30.03,ENE,69,5.0,9.0,89,0.05,,,0.97,0,Wunderground v.1.15,2013-07-28 10:59:00,
2013-07-28 06:05:00,62.6,59.3,30.06,NE,34,5.0,5.0,89,0.12,,,0.99,0,Wunderground v.1.15,2013-07-28 11:05:00,
2013-07-28 06:13:00,62.7,59.4,30.06,SW,233,4.0,4.0,89,1.27,,,1.06,0,Wunderground v.1.15,2013-07-28 11:13:00,
2013-07-28 06:19:00,62.7,59.4,30.07,SSW,200,3.0,4.0,89,0.54,,,1.14,0,Wunderground v.1.15,2013-07-28 11:19:00,
2013-07-28 06:25:00,62.8,59.5,30.06,SSW,199,2.0,4.0,89,0.17,,,1.15,0,Wunderground v.1.15,2013-07-28 11:25:00,
2013-07-28 06:31:00,62.9,59.6,30.05,South,172,3.0,4.0,89,0.11,,,1.16,0,Wunderground v.1.15,2013-07-28 11:31:00,
2013-07-28 06:37:00,62.9,59.6,30.05,SSE,162,3.0,4.0,89,0.10,,,1.17,0,Wunderground v.1.15,2013-07-28 11:37:00,
2013-07-28 06:43:00,62.9,59.6,30.04,SSE,158,3.0,5.0,89,0.12,,,1.18,0,Wunderground v.1.15,2013-07-28 11:43:00,
2013-07-28 06:49:00,63.0,59.7,30.04,SSE,158,4.0,5.0,89,0.06,,,1.18,0,Wunderground v.1.15,2013-07-28 11:49:00,
2013-07-28 06:55:00,62.9,59.6,30.04,SSE,158,3.0,3.0,89,0.05,,,1.19,0,Wunderground v.1.15,2013-07-28 11:55:00,
2013-07-28 07:05:00,63.1,59.8,30.04,SSE,155,2.0,2.0,89,0.07,,,1.20,0,Wunderground v.1.15,2013-07-28 12:05:00,
2013-07-28 07:11:00,63.2,59.9,30.03,SE,146,3.0,3.0,89,0.05,,,1.20,5,Wunderground v.1.15,2013-07-28 12:11:00,
2013-07-28 07:17:00,63.3,60.0,30.03,SE,139,3.0,6.0,89,0.05,,,1.21,11,Wunderground v.1.15,2013-07-28 12:17:00,
2013-07-28 07:23:00,63.4,60.4,30.03,SE,133,3.0,3.0,90,0.05,,,1.21,12,Wunderground v.1.15,2013-07-28 12:23:00,
2013-07-28 07:29:00,63.5,60.5,30.03,SE,133,2.0,3.0,90,0.04,,,1.22,14,Wunderground v.1.15,2013-07-28 12:29:00,
2013-07-28 07:35:00,63.7,60.7,30.03,SE,133,1.0,2.0,90,0.04,,,1.22,18,Wunderground v.1.15,2013-07-28 12:35:00,
2013-07-28 07:41:00,63.8,60.8,30.02,SE,133,2.0,2.0,90,0.04,,,1.22,18,Wunderground v.1.15,2013-07-28 12:41:00,
2013-07-28 07:47:00,63.8,60.5,30.02,SE,133,1.0,2.0,89,0.00,,,1.22,25,Wunderground v.1.15,2013-07-28 12:47:00,
2013-07-28 07:53:00,63.9,60.9,30.02,SE,133,1.0,1.0,90,0.00,,,1.23,32,Wunderground v.1.15,2013-07-28 12:53:00,
2013-07-28 07:59:00,64.0,61.0,30.03,SE,133,1.0,1.0,90,0.00,,,1.23,33,Wunderground v.1.15,2013-07-28 12:59:00,
2013-07-28 08:05:00,64.1,61.1,30.04,SE,133,0.0,1.0,90,0.00,,,1.23,30,Wunderground v.1.15,2013-07-28 13:05:00,
2013-07-28 08:11:00,64.3,61.3,30.04,SE,133,0.0,2.0,90,0.00,,,1.23,33,Wunderground v.1.15,2013-07-28 13:11:00,
2013-07-28 08:17:00,64.4,61.4,30.04,SE,133,0.0,1.0,90,0.00,,,1.23,23,Wunderground v.1.15,2013-07-28 13:17:00,
2013-07-28 08:23:00,64.3,61.3,30.04,SE,133,0.0,1.0,90,0.00,,,1.24,25,Wunderground v.1.15,2013-07-28 13:23:00,
2013-07-28 08:29:00,64.4,61.4,30.04,SE,133,1.0,1.0,90,0.00,,,1.24,30,Wunderground v.1.15,2013-07-28 13:29:00,
2013-07-28 08:35:00,64.4,61.4,30.04,SE,133,1.0,2.0,90,0.00,,,1.24,32,Wunderground v.1.15,2013-07-28 13:35:00,
2013-07-28 08:41:00,64.5,61.5,30.04,SE,133,1.0,3.0,90,0.00,,,1.24,28,Wunderground v.1.15,2013-07-28 13:41:00,
2013-07-28 08:47:00,64.5,61.5,30.04,SE,133,2.0,2.0,90,0.00,,,1.24,23,Wunderground v.1.15,2013-07-28 13:47:00,
2013-07-28 08:53:00,64.5,61.5,30.04,SE,133,0.0,1.0,90,0.00,,,1.24,21,Wunderground v.1.15,2013-07-28 13:53:00,
2013-07-28 08:59:00,64.6,61.6,30.04,SE,133,0.0,1.0,90,0.00,,,1.24,23,Wunderground v.1.15,2013-07-28 13:59:00,
2013-07-28 09:05:00,64.6,61.6,30.04,SE,133,1.0,2.0,90,0.00,,,1.24,21,Wunderground v.1.15,2013-07-28 14:05:00,
2013-07-28 09:11:00,64.7,61.7,30.04,SE,133,1.0,2.0,90,0.00,,,1.25,26,Wunderground v.1.15,2013-07-28 14:11:00,
2013-07-28 09:17:00,64.7,61.7,30.05,SE,133,1.0,2.0,90,0.00,,,1.25,25,Wunderground v.1.15,2013-07-28 14:17:00,
2013-07-28 09:23:00,64.7,61.7,30.05,SE,133,1.0,1.0,90,0.00,,,1.25,21,Wunderground v.1.15,2013-07-28 14:23:00,
2013-07-28 09:29:00,64.8,61.8,30.04,SE,133,1.0,2.0,90,0.00,,,1.26,19,Wunderground v.1.15,2013-07-28 14:29:00,
2013-07-28 09:35:00,64.8,61.8,30.04,SE,133,2.0,2.0,90,0.00,,,1.26,32,Wunderground v.1.15,2013-07-28 14:35:00,
2013-07-28 09:41:00,64.9,61.9,30.03,ESE,123,3.0,4.0,90,0.07,,,1.27,65,Wunderground v.1.15,2013-07-28 14:41:00,
2013-07-28 09:47:00,65.0,62.0,30.03,ESE,113,4.0,4.0,90,0.06,,,1.27,62,Wunderground v.1.15,2013-07-28 14:47:00,
2013-07-28 09:53:00,65.1,62.1,30.03,East,96,4.0,4.0,90,0.04,,,1.27,51,Wunderground v.1.15,2013-07-28 14:53:00,
2013-07-28 09:59:00,65.1,62.1,30.04,East,95,5.0,5.0,90,0.00,,,1.27,83,Wunderground v.1.15,2013-07-28 14:59:00,
2013-07-28 10:05:00,65.3,62.3,30.04,East,98,3.0,4.0,90,0.00,,,1.27,62,Wunderground v.1.15,2013-07-28 15:05:00,
2013-07-28 10:11:00,65.3,62.3,30.04,ESE,102,3.0,5.0,90,0.00,,,1.27,42,Wunderground v.1.15,2013-07-28 15:11:00,
2013-07-28 10:17:00,65.2,62.2,30.04,East,101,3.0,4.0,90,0.00,,,1.27,49,Wunderground v.1.15,2013-07-28 15:17:00,
2013-07-28 10:23:00,65.3,62.3,30.03,East,101,3.0,4.0,90,0.00,,,1.27,53,Wunderground v.1.15,2013-07-28 15:23:00,
2013-07-28 10:29:00,65.2,62.2,30.03,ESE,105,4.0,4.0,90,0.00,,,1.27,74,Wunderground v.1.15,2013-07-28 15:29:00,
2013-07-28 10:35:00,65.4,62.4,30.03,ESE,111,3.0,3.0,90,0.00,,,1.27,88,Wunderground v.1.15,2013-07-28 15:35:00,
2013-07-28 10:41:00,65.5,62.5,30.04,ESE,108,3.0,4.0,90,0.00,,,1.27,91,Wunderground v.1.15,2013-07-28 15:41:00,
2013-07-28 10:47:00,65.5,62.5,30.04,ESE,116,3.0,7.0,90,0.00,,,1.27,84,Wunderground v.1.15,2013-07-28 15:47:00,
2013-07-28 10:53:00,65.5,62.5,30.05,ESE,117,3.0,3.0,90,0.00,,,1.27,65,Wunderground v.1.15,2013-07-28 15:53:00,
2013-07-28 10:59:00,65.4,62.4,30.05,ESE,123,4.0,8.0,90,0.00,,,1.27,77,Wunderground v.1.15,2013-07-28 15:59:00,
2013-07-28 11:05:00,65.3,62.3,30.04,ESE,119,6.0,10.0,90,0.00,,,1.27,76,Wunderground v.1.15,2013-07-28 16:05:00,
2013-07-28 11:13:00,65.5,62.5,30.05,ESE,120,5.0,7.0,90,0.00,,,1.27,97,Wunderground v.1.15,2013-07-28 16:13:00,
2013-07-28 11:19:00,65.4,62.1,30.06,SE,135,4.0,8.0,89,0.00,,,1.27,72,Wunderground v.1.15,2013-07-28 16:19:00,
2013-07-28 11:25:00,65.4,62.4,30.06,East,98,5.0,10.0,90,0.00,,,1.28,76,Wunderground v.1.15,2013-07-28 16:25:00,
2013-07-28 11:31:00,65.3,62.0,30.06,East,89,6.0,10.0,89,0.12,,,1.29,47,Wunderground v.1.15,2013-07-28 16:31:00,
2013-07-28 11:37:00,65.1,61.8,30.06,East,79,5.0,9.0,89,0.12,,,1.30,40,Wunderground v.1.15,2013-07-28 16:37:00,
2013-07-28 11:43:00,64.9,61.6,30.06,East,87,6.0,7.0,89,0.18,,,1.32,44,Wunderground v.1.15,2013-07-28 16:43:00,
2013-07-28 11:49:00,64.9,61.6,30.06,East,98,6.0,10.0,89,0.15,,,1.33,51,Wunderground v.1.15,2013-07-28 16:49:00,
2013-07-28 11:55:00,64.9,61.6,30.04,East,101,7.0,8.0,89,0.15,,,1.35,53,Wunderground v.1.15,2013-07-28 16:55:00,
2013-07-28 12:01:00,64.8,61.5,30.04,ESE,103,7.0,8.0,89,0.13,,,1.37,51,Wunderground v.1.15,2013-07-28 17:01:00,
2013-07-28 12:07:00,64.5,61.2,30.04,ESE,116,7.0,9.0,89,0.09,,,1.37,77,Wunderground v.1.15,2013-07-28 17:07:00,
2013-07-28 12:13:00,64.3,61.0,30.04,ESE,104,7.0,7.0,89,0.05,,,1.37,114,Wunderground v.1.15,2013-07-28 17:13:00,
2013-07-28 12:19:00,64.4,61.1,30.04,ESE,122,6.0,7.0,89,0.00,,,1.37,193,Wunderground v.1.15,2013-07-28 17:19:00,
2013-07-28 12:25:00,64.9,61.9,30.05,East,86,5.0,6.0,90,0.00,,,1.37,297,Wunderground v.1.15,2013-07-28 17:25:00,
2013-07-28 12:31:00,65.1,61.8,30.06,East,90,5.0,6.0,89,0.00,,,1.37,91,Wunderground v.1.15,2013-07-28 17:31:00,
2013-07-28 12:37:00,64.8,61.5,30.06,ESE,118,5.0,8.0,89,0.00,,,1.38,49,Wunderground v.1.15,2013-07-28 17:37:00,
2013-07-28 12:43:00,64.6,61.3,30.07,ESE,109,5.0,5.0,89,0.00,,,1.38,42,Wunderground v.1.15,2013-07-28 17:43:00,
2013-07-28 12:49:00,64.5,61.2,30.06,East,93,4.0,7.0,89,0.00,,,1.38,90,Wunderground v.1.15,2013-07-28 17:49:00,
2013-07-28 12:55:00,64.5,61.2,30.06,ESE,116,5.0,5.0,89,0.00,,,1.38,134,Wunderground v.1.15,2013-07-28 17:55:00,
2013-07-28 13:01:00,64.6,61.3,30.07,ESE,114,4.0,5.0,89,0.00,,,1.38,74,Wunderground v.1.15,2013-07-28 18:01:00,
2013-07-28 13:07:00,64.5,61.2,30.07,ESE,119,4.0,5.0,89,0.00,,,1.38,93,Wunderground v.1.15,2013-07-28 18:07:00,
2013-07-28 13:13:00,64.6,61.3,30.07,ESE,116,4.0,9.0,89,0.00,,,1.38,120,Wunderground v.1.15,2013-07-28 18:13:00,
2013-07-28 13:19:00,64.6,61.0,30.06,SE,125,5.0,9.0,88,0.00,,,1.38,120,Wunderground v.1.15,2013-07-28 18:19:00,
2013-07-28 13:25:00,64.5,60.9,30.06,SE,136,6.0,6.0,88,0.00,,,1.38,111,Wunderground v.1.15,2013-07-28 18:25:00,
2013-07-28 13:31:00,64.7,61.1,30.05,ESE,102,5.0,6.0,88,0.00,,,1.38,120,Wunderground v.1.15,2013-07-28 18:31:00,
2013-07-28 13:37:00,64.8,61.2,30.05,ESE,114,4.0,5.0,88,0.00,,,1.38,105,Wunderground v.1.15,2013-07-28 18:37:00,
2013-07-28 13:43:00,64.8,61.2,30.05,ESE,115,4.0,4.0,88,0.00,,,1.38,141,Wunderground v.1.15,2013-07-28 18:43:00,
2013-07-28 13:49:00,64.9,61.3,30.05,SE,139,5.0,7.0,88,0.00,,,1.38,144,Wunderground v.1.15,2013-07-28 18:49:00,
2013-07-28 13:55:00,65.0,61.4,30.04,ESE,102,5.0,5.0,88,0.00,,,1.38,190,Wunderground v.1.15,2013-07-28 18:55:00,
2013-07-28 14:01:00,65.2,61.6,30.04,East,98,5.0,8.0,88,0.00,,,1.38,195,Wunderground v.1.15,2013-07-28 19:01:00,
2013-07-28 14:07:00,65.4,61.8,30.04,ESE,119,5.0,7.0,88,0.00,,,1.38,192,Wunderground v.1.15,2013-07-28 19:07:00,
2013-07-28 14:13:00,65.4,61.8,30.04,East,98,5.0,5.0,88,0.00,,,1.38,169,Wunderground v.1.15,2013-07-28 19:13:00,
2013-07-28 14:19:00,65.4,61.4,30.04,SE,124,5.0,8.0,87,0.00,,,1.38,137,Wunderground v.1.15,2013-07-28 19:19:00,
2013-07-28 14:25:00,65.3,61.3,30.03,ESE,120,6.0,12.0,87,0.00,,,1.39,125,Wunderground v.1.15,2013-07-28 19:25:00,
2013-07-28 14:33:00,65.2,61.2,30.02,ESE,123,7.0,7.0,87,0.00,,,1.39,130,Wunderground v.1.15,2013-07-28 19:33:00,
2013-07-28 14:39:00,65.3,61.7,30.03,ESE,116,7.0,7.0,88,0.00,,,1.39,151,Wunderground v.1.15,2013-07-28 19:39:00,
2013-07-28 14:45:00,65.6,61.9,30.03,ESE,118,5.0,5.0,88,0.00,,,1.39,186,Wunderground v.1.15,2013-07-28 19:45:00,
2013-07-28 14:51:00,65.7,62.0,30.03,ESE,110,5.0,10.0,88,0.00,,,1.39,253,Wunderground v.1.15,2013-07-28 19:51:00,
2013-07-28 14:57:00,65.9,61.9,30.03,SE,125,7.0,9.0,87,0.00,,,1.39,318,Wunderground v.1.15,2013-07-28 19:57:00,
2013-07-28 15:03:00,66.4,62.7,30.02,SE,128,7.0,7.0,88,0.00,,,1.39,364,Wunderground v.1.15,2013-07-28 20:03:00,
2013-07-28 15:09:00,67.0,63.0,30.02,East,85,6.0,11.0,87,0.00,,,1.39,350,Wunderground v.1.15,2013-07-28 20:09:00,
2013-07-28 15:15:00,66.8,62.5,30.02,East,84,8.0,10.0,86,0.00,,,1.39,244,Wunderground v.1.15,2013-07-28 20:15:00,
2013-07-28 15:21:00,66.8,62.5,30.02,East,87,8.0,13.0,86,0.00,,,1.39,316,Wunderground v.1.15,2013-07-28 20:21:00,
2013-07-28 15:27:00,66.9,62.2,30.02,East,98,7.0,8.0,85,0.00,,,1.39,255,Wunderground v.1.15,2013-07-28 20:27:00,
2013-07-28 15:33:00,67.0,62.3,30.02,ESE,104,6.0,7.0,85,0.00,,,1.39,227,Wunderground v.1.15,2013-07-28 20:33:00,
2013-07-28 15:39:00,66.9,62.2,30.02,East,92,7.0,11.0,85,0.00,,,1.39,162,Wunderground v.1.15,2013-07-28 20:39:00,
2013-07-28 15:45:00,66.7,61.7,30.02,ENE,71,7.0,7.0,84,0.00,,,1.39,162,Wunderground v.1.15,2013-07-28 20:45:00,
2013-07-28 15:51:00,66.7,61.7,30.01,SE,135,7.0,8.0,84,0.00,,,1.39,185,Wunderground v.1.15,2013-07-28 20:51:00,
2013-07-28 15:57:00,66.8,61.8,30.01,East,100,6.0,8.0,84,0.00,,,1.39,160,Wunderground v.1.15,2013-07-28 20:57:00,
2013-07-28 16:03:00,66.8,61.8,30.01,ESE,102,6.0,6.0,84,0.00,,,1.39,137,Wunderground v.1.15,2013-07-28 21:03:00,
2013-07-28 16:09:00,66.8,61.8,30.01,SE,129,6.0,11.0,84,0.00,,,1.39,90,Wunderground v.1.15,2013-07-28 21:09:00,
2013-07-28 16:15:00,66.7,61.7,30.01,ESE,114,6.0,9.0,84,0.00,,,1.39,76,Wunderground v.1.15,2013-07-28 21:15:00,
2013-07-28 16:23:00,66.6,61.6,30.01,ESE,116,5.0,5.0,84,0.00,,,1.39,76,Wunderground v.1.15,2013-07-28 21:23:00,
2013-07-28 16:29:00,66.7,61.7,30.01,East,101,5.0,7.0,84,0.00,,,1.39,49,Wunderground v.1.15,2013-07-28 21:29:00,
2013-07-28 16:35:00,66.6,61.6,30.01,East,80,5.0,10.0,84,0.00,,,1.39,35,Wunderground v.1.15,2013-07-28 21:35:00,
2013-07-28 16:41:00,66.6,61.6,30.02,ENE,77,7.0,10.0,84,0.00,,,1.39,32,Wunderground v.1.15,2013-07-28 21:41:00,
2013-07-28 16:47:00,66.6,61.6,30.02,East,93,8.0,9.0,84,0.00,,,1.39,35,Wunderground v.1.15,2013-07-28 21:47:00,
2013-07-28 16:53:00,66.6,61.6,30.01,East,85,7.0,13.0,84,0.00,,,1.39,32,Wunderground v.1.15,2013-07-28 21:53:00,
2013-07-28 16:59:00,66.6,61.6,30.00,East,98,6.0,13.0,84,0.00,,,1.39,18,Wunderground v.1.15,2013-07-28 21:59:00,
2013-07-28 17:05:00,66.6,61.6,30.00,ESE,108,4.0,5.0,84,0.00,,,1.39,16,Wunderground v.1.15,2013-07-28 22:05:00,
2013-07-28 17:11:00,66.5,61.5,30.00,SE,126,4.0,6.0,84,0.00,,,1.39,28,Wunderground v.1.15,2013-07-28 22:11:00,
2013-07-28 17:17:00,66.7,61.7,30.00,East,89,4.0,8.0,84,0.00,,,1.39,26,Wunderground v.1.15,2013-07-28 22:17:00,
2013-07-28 17:23:00,66.7,61.7,29.99,ESE,108,5.0,5.0,84,0.00,,,1.40,23,Wunderground v.1.15,2013-07-28 22:23:00,
2013-07-28 17:29:00,66.7,61.7,29.99,ESE,120,6.0,9.0,84,0.00,,,1.40,25,Wunderground v.1.15,2013-07-28 22:29:00,
2013-07-28 17:35:00,66.7,61.7,30.00,ESE,121,5.0,5.0,84,0.00,,,1.40,32,Wunderground v.1.15,2013-07-28 22:35:00,
2013-07-28 17:41:00,66.8,61.8,30.00,East,87,5.0,5.0,84,0.00,,,1.40,30,Wunderground v.1.15,2013-07-28 22:41:00,
2013-07-28 17:47:00,66.8,62.1,30.00,East,93,5.0,7.0,85,0.00,,,1.40,33,Wunderground v.1.15,2013-07-28 22:47:00,
2013-07-28 17:53:00,66.9,62.2,30.01,East,81,5.0,6.0,85,0.00,,,1.40,26,Wunderground v.1.15,2013-07-28 22:53:00,
2013-07-28 17:59:00,66.8,62.1,30.00,ENE,61,5.0,6.0,85,0.00,,,1.41,28,Wunderground v.1.15,2013-07-28 22:59:00,
2013-07-28 18:05:00,66.7,62.0,30.00,East,79,5.0,6.0,85,0.00,,,1.41,23,Wunderground v.1.15,2013-07-28 23:05:00,
2013-07-28 18:11:00,66.6,62.3,30.00,East,89,6.0,9.0,86,0.00,,,1.41,21,Wunderground v.1.15,2013-07-28 23:11:00,
2013-07-28 18:17:00,66.5,62.2,30.00,East,85,7.0,8.0,86,0.00,,,1.41,30,Wunderground v.1.15,2013-07-28 23:17:00,
2013-07-28 18:23:00,66.4,62.1,29.99,ENE,72,7.0,8.0,86,0.00,,,1.41,23,Wunderground v.1.15,2013-07-28 23:23:00,
2013-07-28 18:29:00,66.3,62.0,29.99,East,95,7.0,8.0,86,0.00,,,1.41,11,Wunderground v.1.15,2013-07-28 23:29:00,
2013-07-28 18:35:00,66.2,61.9,29.98,ESE,114,8.0,10.0,86,0.00,,,1.41,11,Wunderground v.1.15,2013-07-28 23:35:00,
2013-07-28 18:41:00,66.0,61.7,29.98,SE,127,7.0,12.0,86,0.00,,,1.41,12,Wunderground v.1.15,2013-07-28 23:41:00,
2013-07-28 18:47:00,65.9,61.9,29.99,ESE,119,7.0,9.0,87,0.00,,,1.41,16,Wunderground v.1.15,2013-07-28 23:47:00,
2013-07-28 18:53:00,65.9,61.9,29.99,ESE,108,6.0,7.0,87,0.00,,,1.41,23,Wunderground v.1.15,2013-07-28 23:53:00,
2013-07-28 18:59:00,65.9,61.9,29.98,ESE,118,6.0,7.0,87,0.00,,,1.41,26,Wunderground v.1.15,2013-07-28 23:59:00,
2013-07-28 19:05:00,65.8,61.8,29.98,ESE,114,6.0,9.0,87,0.00,,,1.42,18,Wunderground v.1.15,2013-07-29 00:05:00,
2013-07-28 19:11:00,65.8,61.8,29.98,ESE,112,6.0,10.0,87,0.00,,,1.42,14,Wunderground v.1.15,2013-07-29 00:11:00,
2013-07-28 19:17:00,65.7,61.7,29.99,East,91,5.0,6.0,87,0.00,,,1.42,18,Wunderground v.1.15,2013-07-29 00:17:00,
2013-07-28 19:23:00,65.6,61.6,29.99,ESE,102,5.0,5.0,87,0.00,,,1.42,11,Wunderground v.1.15,2013-07-29 00:23:00,
2013-07-28 19:29:00,65.6,61.6,29.99,ESE,120,4.0,7.0,87,0.00,,,1.42,9,Wunderground v.1.15,2013-07-29 00:29:00,
2013-07-28 19:35:00,65.5,61.5,29.99,ESE,120,5.0,5.0,87,0.00,,,1.42,7,Wunderground v.1.15,2013-07-29 00:35:00,
2013-07-28 19:41:00,65.5,61.5,30.00,ESE,118,5.0,5.0,87,0.00,,,1.42,7,Wunderground v.1.15,2013-07-29 00:41:00,
2013-07-28 19:47:00,65.5,61.5,30.00,East,96,4.0,5.0,87,0.00,,,1.42,9,Wunderground v.1.15,2013-07-29 00:47:00,
2013-07-28 19:53:00,65.6,61.6,29.99,ENE,76,4.0,5.0,87,0.00,,,1.42,7,Wunderground v.1.15,2013-07-29 00:53:00,
2013-07-28 19:59:00,65.5,61.2,29.99,East,84,6.0,7.0,86,0.00,,,1.42,0,Wunderground v.1.15,2013-07-29 00:59:00,
2013-07-28 20:05:00,65.5,61.2,30.00,East,94,6.0,6.0,86,0.00,,,1.42,0,Wunderground v.1.15,2013-07-29 01:05:00,
2013-07-28 20:11:00,65.4,61.1,30.00,East,93,6.0,10.0,86,0.00,,,1.42,0,Wunderground v.1.15,2013-07-29 01:11:00,
2013-07-28 20:17:00,65.4,61.1,30.00,East,91,6.0,6.0,86,0.00,,,1.42,0,Wunderground v.1.15,2013-07-29 01:17:00,
2013-07-28 20:23:00,65.3,61.0,30.00,ESE,103,6.0,6.0,86,0.00,,,1.42,0,Wunderground v.1.15,2013-07-29 01:23:00,
2013-07-28 20:33:00,65.2,60.9,30.00,ESE,102,6.0,6.0,86,0.00,,,1.42,0,Wunderground v.1.15,2013-07-29 01:33:00,
2013-07-28 20:39:00,65.1,60.8,30.00,ESE,114,5.0,6.0,86,0.00,,,1.42,0,Wunderground v.1.15,2013-07-29 01:39:00,
2013-07-28 20:45:00,65.0,60.7,30.00,ESE,108,6.0,6.0,86,0.00,,,1.42,0,Wunderground v.1.15,2013-07-29 01:45:00,
2013-07-28 20:55:00,64.9,60.6,30.00,ENE,77,6.0,9.0,86,0.00,,,1.42,0,Wunderground v.1.15,2013-07-29 01:55:00,
2013-07-28 21:03:00,64.7,60.4,30.01,East,89,5.0,7.0,86,0.00,,,1.43,0,Wunderground v.1.15,2013-07-29 02:03:00,
2013-07-28 21:09:00,64.6,60.3,30.01,East,88,5.0,7.0,86,0.00,,,1.43,0,Wunderground v.1.15,2013-07-29 02:09:00,
2013-07-28 21:15:00,64.5,60.2,30.01,East,84,5.0,6.0,86,0.00,,,1.43,0,Wunderground v.1.15,2013-07-29 02:15:00,
2013-07-28 21:21:00,64.4,60.1,30.01,East,86,5.0,6.0,86,0.00,,,1.43,0,Wunderground v.1.15,2013-07-29 02:21:00,
2013-07-28 21:27:00,64.3,60.0,30.01,East,91,5.0,8.0,86,0.00,,,1.43,0,Wunderground v.1.15,2013-07-29 02:27:00,
2013-07-28 21:33:00,64.3,60.3,30.01,East,95,5.0,5.0,87,0.00,,,1.43,0,Wunderground v.1.15,2013-07-29 02:33:00,
2013-07-28 21:41:00,64.3,60.3,30.01,East,100,4.0,5.0,87,0.00,,,1.43,0,Wunderground v.1.15,2013-07-29 02:41:00,
2013-07-28 21:47:00,64.2,60.2,30.01,ESE,112,4.0,7.0,87,0.00,,,1.43,0,Wunderground v.1.15,2013-07-29 02:47:00,
2013-07-28 21:53:00,64.2,60.2,30.00,ESE,118,3.0,4.0,87,0.00,,,1.43,0,Wunderground v.1.15,2013-07-29 02:53:00,
2013-07-28 21:59:00,64.2,60.2,30.00,ESE,116,4.0,6.0,87,0.00,,,1.43,0,Wunderground v.1.15,2013-07-29 02:59:00,
2013-07-28 22:05:00,64.2,60.2,30.00,East,85,5.0,8.0,87,0.00,,,1.43,0,Wunderground v.1.15,2013-07-29 03:05:00,
2013-07-28 22:11:00,64.2,59.9,30.00,SE,125,5.0,8.0,86,0.00,,,1.43,0,Wunderground v.1.15,2013-07-29 03:11:00,
2013-07-28 22:17:00,64.3,60.0,30.01,ESE,116,5.0,5.0,86,0.00,,,1.43,0,Wunderground v.1.15,2013-07-29 03:17:00,
2013-07-28 22:23:00,64.4,60.1,30.02,ESE,112,5.0,10.0,86,0.00,,,1.43,0,Wunderground v.1.15,2013-07-29 03:23:00,
2013-07-28 22:29:00,64.5,60.2,30.02,ESE,105,5.0,10.0,86,0.00,,,1.43,0,Wunderground v.1.15,2013-07-29 03:29:00,
2013-07-28 22:35:00,64.6,60.0,30.03,East,96,4.0,7.0,85,0.00,,,1.43,0,Wunderground v.1.15,2013-07-29 03:35:00,
2013-07-28 22:43:00,64.7,60.1,30.03,ESE,104,4.0,4.0,85,0.00,,,1.43,0,Wunderground v.1.15,2013-07-29 03:43:00,
2013-07-28 22:49:00,64.9,60.3,30.03,ESE,113,4.0,4.0,85,0.00,,,1.43,0,Wunderground v.1.15,2013-07-29 03:49:00,
2013-07-28 22:55:00,64.9,60.3,30.03,ESE,108,3.0,5.0,85,0.00,,,1.43,0,Wunderground v.1.15,2013-07-29 03:55:00,
2013-07-28 23:01:00,64.8,60.2,30.03,ESE,118,3.0,5.0,85,0.00,,,1.43,0,Wunderground v.1.15,2013-07-29 04:01:00,
2013-07-28 23:03:00,64.8,60.2,30.03,ESE,114,3.0,3.0,85,0.00,,,1.43,0,Wunderground v.1.15,2013-07-29 04:03:00,
2013-07-28 23:09:00,64.8,60.2,30.03,East,93,3.0,3.0,85,0.00,,,1.43,0,Wunderground v.1.15,2013-07-29 04:09:00,
2013-07-28 23:15:00,64.9,60.3,30.03,East,95,2.0,3.0,85,0.00,,,1.43,0,Wunderground v.1.15,2013-07-29 04:15:00,
2013-07-28 23:19:00,64.8,60.2,30.03,East,91,3.0,6.0,85,0.00,,,1.43,0,Wunderground v.1.15,2013-07-29 04:19:00,
2013-07-28 23:25:00,64.9,60.3,30.03,East,89,3.0,3.0,85,0.00,,,1.43,0,Wunderground v.1.15,2013-07-29 04:25:00,
2013-07-28 23:27:00,64.9,60.3,30.03,East,93,4.0,4.0,85,0.00,,,1.43,0,Wunderground v.1.15,2013-07-29 04:27:00,
2013-07-28 23:33:00,64.9,60.3,30.03,East,91,3.0,5.0,85,0.00,,,1.43,0,Wunderground v.1.15,2013-07-29 04:33:00,
2013-07-28 23:39:00,64.9,60.3,30.02,ESE,104,3.0,5.0,85,0.00,,,1.43,0,Wunderground v.1.15,2013-07-29 04:39:00,
2013-07-28 23:47:00,64.9,60.3,30.03,ESE,103,3.0,4.0,85,0.00,,,1.43,0,Wunderground v.1.15,2013-07-29 04:47:00,
2013-07-28 23:53:00,64.9,60.3,30.03,ESE,112,2.0,4.0,85,0.00,,,1.43,0,Wunderground v.1.15,2013-07-29 04:53:00,
2013-07-28 23:59:00,64.9,60.3,30.02,ESE,112,2.0,4.0,85,0.00,,,0.00,0,Wunderground v.1.15,2013-07-29 04:59:00,